ARG1356 SABE-SULS
Flight info
| Callsign | ARG1356 |
|---|---|
| Flight time | 0h 30m |
| Altitude | 21000 |
| Route | DORVO8 DORVO DCT CRR |
| Aircraft | B737/M-MSDFGHILRVWSB1/LB1 |
Departure
| Time | 2026-05-05 02:27 |
|---|---|
| Airport | Aeroparque Jorge Newbery (SABE) |
Arrival
| Time | 2026-05-05 02:57 |
|---|---|
| Airport | Capitan Corbeta CA Curbelo International Airport (SULS) |
| Time | Latitude | Longitude | Altitude | Speed | Heading |
|---|---|---|---|---|---|
| 2026-05-05 02:00 | -34.55890 | -58.41112 | 24 ft | 0 kts | 41° |
| 2026-05-05 02:03 | -34.55891 | -58.41112 | 24 ft | 0 kts | 41° |
| 2026-05-05 02:15 | -34.55898 | -58.41121 | 27 ft | 4 kts | 40° |
| 2026-05-05 02:15 | -34.55919 | -58.41138 | 28 ft | 4 kts | 3° |
| 2026-05-05 02:16 | -34.55934 | -58.41129 | 30 ft | 4 kts | 311° |
| 2026-05-05 02:16 | -34.55948 | -58.41110 | 29 ft | 0 kts | 311° |
| 2026-05-05 02:20 | -34.55947 | -58.41111 | 29 ft | 1 kts | 311° |
| 2026-05-05 02:20 | -34.55936 | -58.41126 | 30 ft | 4 kts | 311° |
| 2026-05-05 02:20 | -34.55907 | -58.41166 | 25 ft | 7 kts | 311° |
| 2026-05-05 02:21 | -34.55874 | -58.41212 | 24 ft | 7 kts | 309° |
| 2026-05-05 02:21 | -34.55855 | -58.41262 | 24 ft | 7 kts | 264° |
| 2026-05-05 02:21 | -34.55898 | -58.41307 | 24 ft | 10 kts | 218° |
| 2026-05-05 02:21 | -34.55891 | -58.41384 | 27 ft | 10 kts | 297° |
| 2026-05-05 02:22 | -34.55859 | -58.41458 | 28 ft | 10 kts | 297° |
| 2026-05-05 02:22 | -34.55829 | -58.41530 | 26 ft | 10 kts | 297° |
| 2026-05-05 02:22 | -34.55799 | -58.41601 | 26 ft | 9 kts | 296° |
| 2026-05-05 02:22 | -34.55771 | -58.41670 | 25 ft | 9 kts | 296° |
| 2026-05-05 02:23 | -34.55741 | -58.41743 | 26 ft | 11 kts | 296° |
| 2026-05-05 02:23 | -34.55701 | -58.41819 | 28 ft | 11 kts | 303° |
| 2026-05-05 02:23 | -34.55663 | -58.41889 | 25 ft | 10 kts | 303° |
| 2026-05-05 02:23 | -34.55623 | -58.41960 | 26 ft | 10 kts | 304° |
| 2026-05-05 02:24 | -34.55585 | -58.42028 | 24 ft | 10 kts | 304° |
| 2026-05-05 02:24 | -34.55546 | -58.42092 | 24 ft | 9 kts | 307° |
| 2026-05-05 02:24 | -34.55507 | -58.42155 | 26 ft | 9 kts | 307° |
| 2026-05-05 02:24 | -34.55469 | -58.42215 | 26 ft | 9 kts | 307° |
| 2026-05-05 02:25 | -34.55432 | -58.42275 | 25 ft | 9 kts | 307° |
| 2026-05-05 02:25 | -34.55396 | -58.42332 | 24 ft | 8 kts | 307° |
| 2026-05-05 02:25 | -34.55369 | -58.42393 | 27 ft | 8 kts | 281° |
| 2026-05-05 02:25 | -34.55360 | -58.42461 | 24 ft | 9 kts | 271° |
| 2026-05-05 02:26 | -34.55400 | -58.42504 | 25 ft | 9 kts | 168° |
| 2026-05-05 02:26 | -34.55482 | -58.42372 | 26 ft | 48 kts | 124° |
| 2026-05-05 02:26 | -34.55814 | -58.41775 | 25 ft | 120 kts | 124° |
| 2026-05-05 02:26 | -34.56363 | -58.40785 | 168 ft | 157 kts | 123° |
| 2026-05-05 02:27 | -34.56977 | -58.39625 | 738 ft | 167 kts | 121° |
| 2026-05-05 02:27 | -34.57606 | -58.38409 | 1396 ft | 174 kts | 114° |
| 2026-05-05 02:27 | -34.57805 | -58.36895 | 1752 ft | 193 kts | 73° |
| 2026-05-05 02:27 | -34.57052 | -58.35568 | 2284 ft | 199 kts | 33° |
| 2026-05-05 02:28 | -34.55873 | -58.34578 | 2792 ft | 213 kts | 29° |
| 2026-05-05 02:28 | -34.54539 | -58.33575 | 3161 ft | 240 kts | 31° |
| 2026-05-05 02:28 | -34.53290 | -58.32086 | 3655 ft | 265 kts | 54° |
| 2026-05-05 02:28 | -34.52629 | -58.29960 | 4405 ft | 280 kts | 82° |
| 2026-05-05 02:29 | -34.52818 | -58.27586 | 5256 ft | 286 kts | 104° |
| 2026-05-05 02:29 | -34.53415 | -58.25290 | 6275 ft | 287 kts | 107° |
| 2026-05-05 02:29 | -34.54006 | -58.22952 | 7099 ft | 293 kts | 107° |
| 2026-05-05 02:29 | -34.54608 | -58.20552 | 7927 ft | 301 kts | 108° |
| 2026-05-05 02:30 | -34.54953 | -58.19177 | 8399 ft | 305 kts | 109° |
| 2026-05-05 02:30 | -34.55578 | -58.16682 | 9283 ft | 313 kts | 110° |
| 2026-05-05 02:30 | -34.56216 | -58.14133 | 10165 ft | 320 kts | 110° |
| 2026-05-05 02:30 | -34.56885 | -58.11469 | 10628 ft | 343 kts | 111° |
| 2026-05-05 02:31 | -34.57577 | -58.08714 | 11110 ft | 359 kts | 110° |
| 2026-05-05 02:31 | -34.58295 | -58.05833 | 11926 ft | 365 kts | 110° |
| 2026-05-05 02:31 | -34.58996 | -58.03009 | 12784 ft | 369 kts | 111° |
| 2026-05-05 02:31 | -34.59747 | -57.99978 | 13698 ft | 375 kts | 111° |
| 2026-05-05 02:32 | -34.60485 | -57.97005 | 14374 ft | 384 kts | 111° |
| 2026-05-05 02:32 | -34.61245 | -57.93936 | 15139 ft | 390 kts | 110° |
| 2026-05-05 02:32 | -34.62008 | -57.90853 | 15981 ft | 394 kts | 110° |
| 2026-05-05 02:32 | -34.62792 | -57.87680 | 16817 ft | 400 kts | 110° |
| 2026-05-05 02:33 | -34.63585 | -57.84467 | 17575 ft | 407 kts | 110° |
| 2026-05-05 02:33 | -34.64391 | -57.81197 | 18320 ft | 414 kts | 109° |
| 2026-05-05 02:33 | -34.65207 | -57.77883 | 18986 ft | 419 kts | 109° |
| 2026-05-05 02:33 | -34.66037 | -57.74510 | 19706 ft | 424 kts | 109° |
| 2026-05-05 02:34 | -34.66870 | -57.71117 | 20421 ft | 429 kts | 109° |
| 2026-05-05 02:34 | -34.67713 | -57.67678 | 20814 ft | 432 kts | 109° |
| 2026-05-05 02:34 | -34.68557 | -57.64232 | 20960 ft | 432 kts | 109° |
| 2026-05-05 02:34 | -34.69397 | -57.60794 | 20950 ft | 429 kts | 109° |
| 2026-05-05 02:35 | -34.70232 | -57.57377 | 20967 ft | 426 kts | 109° |
| 2026-05-05 02:35 | -34.71066 | -57.53962 | 20963 ft | 427 kts | 109° |
| 2026-05-05 02:35 | -34.71820 | -57.50568 | 20952 ft | 430 kts | 103° |
| 2026-05-05 02:35 | -34.72249 | -57.47009 | 20959 ft | 432 kts | 98° |
| 2026-05-05 02:36 | -34.72532 | -57.43430 | 20969 ft | 432 kts | 96° |
| 2026-05-05 02:36 | -34.72769 | -57.39838 | 20967 ft | 433 kts | 96° |
| 2026-05-05 02:36 | -34.73003 | -57.36248 | 20966 ft | 433 kts | 96° |
| 2026-05-05 02:36 | -34.73252 | -57.32665 | 20964 ft | 432 kts | 96° |
| 2026-05-05 02:37 | -34.73519 | -57.29069 | 20958 ft | 432 kts | 97° |
| 2026-05-05 02:37 | -34.73797 | -57.25499 | 20959 ft | 431 kts | 97° |
| 2026-05-05 02:37 | -34.74084 | -57.21925 | 20964 ft | 431 kts | 97° |
| 2026-05-05 02:37 | -34.74374 | -57.18357 | 20961 ft | 430 kts | 97° |
| 2026-05-05 02:38 | -34.74666 | -57.14784 | 20960 ft | 430 kts | 97° |
| 2026-05-05 02:38 | -34.74956 | -57.11219 | 20959 ft | 430 kts | 97° |
| 2026-05-05 02:38 | -34.75246 | -57.07655 | 20959 ft | 430 kts | 97° |
| 2026-05-05 02:38 | -34.75534 | -57.04089 | 20982 ft | 429 kts | 97° |
| 2026-05-05 02:39 | -34.75821 | -57.00514 | 20963 ft | 430 kts | 97° |
| 2026-05-05 02:39 | -34.76106 | -56.96956 | 20963 ft | 430 kts | 97° |
| 2026-05-05 02:39 | -34.76390 | -56.93396 | 20967 ft | 430 kts | 97° |
| 2026-05-05 02:39 | -34.76671 | -56.89850 | 20968 ft | 430 kts | 97° |
| 2026-05-05 02:40 | -34.76964 | -56.86242 | 20961 ft | 430 kts | 98° |
| 2026-05-05 02:40 | -34.77346 | -56.82630 | 20955 ft | 429 kts | 100° |
| 2026-05-05 02:40 | -34.77783 | -56.79047 | 20964 ft | 429 kts | 101° |
| 2026-05-05 02:40 | -34.78237 | -56.75457 | 20960 ft | 429 kts | 101° |
| 2026-05-05 02:41 | -34.78687 | -56.71879 | 20965 ft | 429 kts | 101° |
| 2026-05-05 02:41 | -34.79131 | -56.68286 | 20962 ft | 429 kts | 101° |
| 2026-05-05 02:41 | -34.79565 | -56.64692 | 20958 ft | 429 kts | 100° |
| 2026-05-05 02:41 | -34.79991 | -56.61112 | 20948 ft | 427 kts | 100° |
| 2026-05-05 02:42 | -34.80411 | -56.57532 | 20538 ft | 427 kts | 100° |
| 2026-05-05 02:42 | -34.80828 | -56.53955 | 20088 ft | 425 kts | 100° |
| 2026-05-05 02:42 | -34.81239 | -56.50415 | 19589 ft | 421 kts | 100° |
| 2026-05-05 02:42 | -34.81645 | -56.46906 | 19086 ft | 417 kts | 100° |
| 2026-05-05 02:43 | -34.82047 | -56.43419 | 18561 ft | 415 kts | 100° |
| 2026-05-05 02:43 | -34.82446 | -56.39958 | 17991 ft | 412 kts | 100° |
| 2026-05-05 02:43 | -34.82843 | -56.36508 | 17439 ft | 409 kts | 100° |
| 2026-05-05 02:43 | -34.83233 | -56.33107 | 16904 ft | 404 kts | 100° |
| 2026-05-05 02:44 | -34.83613 | -56.29782 | 16399 ft | 400 kts | 100° |
| 2026-05-05 02:44 | -34.83999 | -56.26405 | 15886 ft | 396 kts | 100° |
| 2026-05-05 02:44 | -34.84370 | -56.23145 | 15397 ft | 392 kts | 100° |
| 2026-05-05 02:44 | -34.84746 | -56.19838 | 14884 ft | 388 kts | 100° |
| 2026-05-05 02:45 | -34.85114 | -56.16594 | 14388 ft | 385 kts | 100° |
| 2026-05-05 02:45 | -34.85477 | -56.13381 | 13879 ft | 382 kts | 100° |
| 2026-05-05 02:45 | -34.85833 | -56.10230 | 13327 ft | 379 kts | 100° |
| 2026-05-05 02:45 | -34.86189 | -56.07065 | 12788 ft | 375 kts | 100° |
| 2026-05-05 02:46 | -34.86541 | -56.03931 | 12283 ft | 372 kts | 100° |
| 2026-05-05 02:46 | -34.86894 | -56.00787 | 11763 ft | 368 kts | 99° |
| 2026-05-05 02:46 | -34.87232 | -55.97758 | 11273 ft | 365 kts | 99° |
| 2026-05-05 02:46 | -34.87572 | -55.94711 | 10767 ft | 362 kts | 99° |
| 2026-05-05 02:47 | -34.87910 | -55.91678 | 10310 ft | 358 kts | 99° |
| 2026-05-05 02:47 | -34.88236 | -55.88737 | 10149 ft | 345 kts | 99° |
| 2026-05-05 02:47 | -34.88549 | -55.85898 | 9986 ft | 333 kts | 99° |
| 2026-05-05 02:47 | -34.88851 | -55.83155 | 9911 ft | 318 kts | 99° |
| 2026-05-05 02:48 | -34.89148 | -55.80470 | 9292 ft | 324 kts | 99° |
| 2026-05-05 02:48 | -34.89445 | -55.77782 | 8860 ft | 322 kts | 99° |
| 2026-05-05 02:48 | -34.89742 | -55.75084 | 8466 ft | 320 kts | 98° |
| 2026-05-05 02:48 | -34.90034 | -55.72419 | 8081 ft | 316 kts | 98° |
| 2026-05-05 02:49 | -34.90324 | -55.69771 | 7712 ft | 313 kts | 98° |
| 2026-05-05 02:49 | -34.90609 | -55.67154 | 7345 ft | 310 kts | 98° |
| 2026-05-05 02:49 | -34.90891 | -55.64568 | 6982 ft | 307 kts | 98° |
| 2026-05-05 02:49 | -34.91170 | -55.62001 | 6628 ft | 304 kts | 98° |
| 2026-05-05 02:50 | -34.91447 | -55.59455 | 6257 ft | 301 kts | 98° |
| 2026-05-05 02:50 | -34.91719 | -55.56936 | 5881 ft | 298 kts | 98° |
| 2026-05-05 02:50 | -34.91988 | -55.54449 | 5525 ft | 295 kts | 98° |
| 2026-05-05 02:50 | -34.92254 | -55.51982 | 5178 ft | 292 kts | 98° |
| 2026-05-05 02:51 | -34.92517 | -55.49543 | 4844 ft | 288 kts | 98° |
| 2026-05-05 02:51 | -34.92776 | -55.47136 | 4501 ft | 285 kts | 98° |
| 2026-05-05 02:51 | -34.93028 | -55.44782 | 4158 ft | 282 kts | 98° |
| 2026-05-05 02:51 | -34.93279 | -55.42444 | 3886 ft | 277 kts | 97° |
| 2026-05-05 02:52 | -34.93441 | -55.40189 | 3760 ft | 266 kts | 85° |
| 2026-05-05 02:52 | -34.93003 | -55.38062 | 3663 ft | 253 kts | 71° |
| 2026-05-05 02:52 | -34.92467 | -55.36059 | 3548 ft | 244 kts | 71° |
| 2026-05-05 02:52 | -34.91960 | -55.34136 | 3467 ft | 233 kts | 71° |
| 2026-05-05 02:53 | -34.91477 | -55.32290 | 3352 ft | 225 kts | 71° |
| 2026-05-05 02:53 | -34.91006 | -55.30482 | 3117 ft | 222 kts | 71° |
| 2026-05-05 02:53 | -34.90548 | -55.28722 | 2917 ft | 214 kts | 71° |
| 2026-05-05 02:53 | -34.90109 | -55.27031 | 2696 ft | 205 kts | 70° |
| 2026-05-05 02:54 | -34.89692 | -55.25426 | 2467 ft | 192 kts | 70° |
| 2026-05-05 02:54 | -34.89305 | -55.23934 | 2215 ft | 179 kts | 70° |
| 2026-05-05 02:54 | -34.88941 | -55.22533 | 1970 ft | 169 kts | 69° |
| 2026-05-05 02:54 | -34.88606 | -55.21237 | 1814 ft | 153 kts | 68° |
| 2026-05-05 02:55 | -34.88292 | -55.20032 | 1571 ft | 146 kts | 68° |
| 2026-05-05 02:55 | -34.87984 | -55.18854 | 1408 ft | 146 kts | 68° |
| 2026-05-05 02:55 | -34.87679 | -55.17680 | 1284 ft | 143 kts | 68° |
| 2026-05-05 02:55 | -34.87386 | -55.16521 | 1147 ft | 143 kts | 68° |
| 2026-05-05 02:56 | -34.87115 | -55.15360 | 1012 ft | 143 kts | 70° |
| 2026-05-05 02:56 | -34.86806 | -55.14203 | 810 ft | 143 kts | 68° |
| 2026-05-05 02:56 | -34.86493 | -55.13081 | 569 ft | 136 kts | 70° |
| 2026-05-05 02:56 | -34.86210 | -55.12020 | 314 ft | 129 kts | 71° |
| 2026-05-05 02:57 | -34.85941 | -55.11015 | 108 ft | 124 kts | 71° |
| 2026-05-05 02:57 | -34.85711 | -55.10157 | 99 ft | 80 kts | 71° |
| 2026-05-05 02:57 | -34.85593 | -55.09724 | 100 ft | 21 kts | 72° |
| 2026-05-05 02:57 | -34.85560 | -55.09598 | 100 ft | 15 kts | 72° |
| 2026-05-05 02:58 | -34.85535 | -55.09507 | 100 ft | 8 kts | 72° |
| 2026-05-05 02:58 | -34.85526 | -55.09473 | 101 ft | 4 kts | 72° |
| 2026-05-05 02:58 | -34.85519 | -55.09441 | 101 ft | 4 kts | 79° |
| 2026-05-05 02:58 | -34.85527 | -55.09411 | 102 ft | 4 kts | 137° |
| 2026-05-05 02:59 | -34.85568 | -55.09400 | 102 ft | 10 kts | 178° |
| 2026-05-05 02:59 | -34.85654 | -55.09397 | 102 ft | 13 kts | 179° |
| 2026-05-05 02:59 | -34.85703 | -55.09472 | 101 ft | 13 kts | 255° |
| 2026-05-05 02:59 | -34.85730 | -55.09573 | 99 ft | 12 kts | 252° |
| 2026-05-05 03:00 | -34.85744 | -55.09623 | 100 ft | 6 kts | 251° |
| 2026-05-05 03:00 | -34.85756 | -55.09667 | 99 ft | 6 kts | 251° |
| 2026-05-05 03:00 | -34.85768 | -55.09712 | 99 ft | 5 kts | 251° |